createdAt,value
2018-07-17T00:01:47.214Z,20.90
2018-07-17T00:07:58.891Z,20.90
2018-07-17T00:12:06.501Z,20.80
2018-07-17T00:14:10.375Z,21.00
2018-07-17T00:16:14.209Z,20.80
2018-07-17T00:18:18.090Z,20.90
2018-07-17T00:20:21.986Z,20.80
2018-07-17T00:22:25.893Z,20.80
2018-07-17T00:24:29.718Z,20.80
2018-07-17T00:26:33.695Z,20.90
2018-07-17T00:28:37.536Z,20.80
2018-07-17T00:32:45.027Z,20.60
2018-07-17T00:34:48.942Z,20.50
2018-07-17T00:38:56.317Z,20.60
2018-07-17T00:43:03.696Z,20.60
2018-07-17T00:45:07.495Z,20.80
2018-07-17T00:47:11.544Z,20.80
2018-07-17T00:49:15.357Z,20.70
2018-07-17T00:53:22.666Z,20.70
2018-07-17T00:55:28.702Z,20.20
2018-07-17T00:57:32.584Z,20.60
2018-07-17T00:59:36.412Z,20.50
2018-07-17T01:01:45.409Z,20.30
2018-07-17T01:03:54.503Z,20.50
2018-07-17T01:06:03.579Z,20.50
2018-07-17T01:08:12.786Z,20.40
2018-07-17T01:10:21.787Z,20.20
2018-07-17T01:12:24.789Z,20.30
2018-07-17T01:15:02.313Z,20.40
2018-07-17T01:17:06.378Z,20.30
2018-07-17T01:19:10.228Z,20.40
2018-07-17T01:21:14.258Z,20.60
2018-07-17T01:23:18.043Z,20.60
2018-07-17T01:27:25.451Z,20.60
2018-07-17T01:29:29.355Z,20.70
2018-07-17T01:31:33.147Z,21.00
2018-07-17T01:33:37.055Z,20.70
2018-07-17T01:35:40.958Z,20.70
2018-07-17T01:39:48.419Z,20.70
2018-07-17T01:43:55.711Z,20.70
2018-07-17T01:45:59.572Z,20.60
2018-07-17T01:48:03.414Z,20.60
2018-07-17T01:52:10.781Z,20.70
2018-07-17T01:56:18.040Z,20.80
2018-07-17T01:58:21.881Z,20.80
2018-07-17T02:00:25.693Z,20.80
2018-07-17T02:02:29.607Z,20.80
2018-07-17T02:04:33.641Z,20.60
2018-07-17T02:06:37.591Z,21.00
2018-07-17T02:08:41.423Z,20.90
2018-07-17T02:10:45.355Z,20.80
2018-07-17T02:12:49.162Z,20.80
2018-07-17T02:14:52.998Z,20.50
2018-07-17T02:16:56.983Z,20.40
2018-07-17T02:19:00.925Z,20.40
2018-07-17T02:21:04.795Z,20.10
2018-07-17T02:23:08.695Z,19.90
2018-07-17T02:25:12.510Z,19.50
2018-07-17T02:27:16.385Z,19.80
2018-07-17T02:29:20.323Z,19.50
2018-07-17T02:31:24.181Z,19.60
2018-07-17T02:33:27.997Z,19.20
2018-07-17T02:35:31.952Z,19.80
2018-07-17T02:37:35.815Z,19.80
2018-07-17T02:39:39.820Z,20.00
2018-07-17T02:41:43.609Z,19.10
2018-07-17T02:43:47.498Z,19.60
2018-07-17T02:45:51.295Z,19.20
2018-07-17T02:47:55.212Z,18.90
2018-07-17T02:49:59.004Z,18.60
2018-07-17T02:52:02.882Z,18.60
2018-07-17T02:56:10.173Z,19.00
2018-07-17T02:58:14.055Z,18.90
2018-07-17T03:00:17.969Z,19.10
2018-07-17T03:02:21.794Z,19.20
2018-07-17T03:04:25.686Z,19.00
2018-07-17T03:06:29.498Z,19.10
2018-07-17T03:08:33.367Z,19.10
2018-07-17T03:12:40.677Z,18.80
2018-07-17T03:14:44.467Z,19.50
2018-07-17T03:16:48.659Z,19.20
2018-07-17T03:18:52.449Z,18.90
2018-07-17T03:20:56.632Z,19.20
2018-07-17T03:23:00.467Z,19.10
2018-07-17T03:25:04.385Z,19.10
2018-07-17T03:27:08.249Z,19.40
2018-07-17T03:31:15.620Z,19.10
2018-07-17T03:33:19.581Z,19.10
2018-07-17T03:35:23.669Z,18.80
2018-07-17T03:37:27.552Z,18.80
2018-07-17T03:39:31.507Z,18.70
2018-07-17T03:43:39.113Z,18.90
2018-07-17T03:45:43.168Z,18.90
2018-07-17T03:47:47.278Z,18.80
2018-07-17T03:49:51.191Z,18.90
2018-07-17T03:51:55.118Z,18.70
2018-07-17T03:53:59.101Z,18.90
2018-07-17T03:56:02.898Z,18.90
2018-07-17T03:58:06.774Z,19.20
2018-07-17T04:02:14.096Z,18.70
2018-07-17T04:06:23.491Z,18.90
2018-07-17T04:08:27.308Z,18.70
2018-07-17T04:10:31.233Z,18.70
2018-07-17T04:12:35.169Z,19.10
2018-07-17T04:14:39.279Z,18.50
2018-07-17T04:16:49.849Z,18.50
2018-07-17T04:18:53.774Z,18.90
2018-07-17T04:20:57.526Z,18.80
2018-07-17T04:23:01.393Z,18.90
2018-07-17T04:29:12.860Z,19.20
2018-07-17T04:33:20.944Z,19.20
2018-07-17T04:35:25.292Z,18.90
2018-07-17T04:37:29.247Z,18.90
2018-07-17T04:39:54.609Z,19.10
2018-07-17T04:42:14.674Z,19.10
2018-07-17T04:44:18.999Z,19.10
2018-07-17T04:46:23.094Z,19.30
2018-07-17T04:56:41.999Z,19.80
2018-07-17T04:58:46.013Z,19.80
2018-07-17T05:00:50.142Z,20.40
2018-07-17T05:04:58.158Z,20.30
2018-07-17T05:07:02.318Z,20.40
2018-07-17T05:09:08.348Z,20.40
2018-07-17T05:11:12.497Z,20.30
2018-07-17T05:13:17.619Z,20.50
2018-07-17T05:15:21.857Z,20.50
2018-07-17T05:19:29.108Z,21.50
2018-07-17T05:23:36.386Z,21.40
2018-07-17T05:25:40.169Z,21.60
2018-07-17T05:27:44.118Z,21.90
2018-07-17T05:29:47.923Z,21.70
2018-07-17T05:33:55.214Z,21.90
2018-07-17T05:35:59.169Z,21.90
2018-07-17T05:38:03.030Z,22.40
2018-07-17T05:40:06.897Z,22.50
2018-07-17T05:42:10.724Z,22.40
2018-07-17T05:44:14.596Z,22.30
2018-07-17T05:46:18.390Z,22.70
2018-07-17T05:48:22.306Z,22.70
2018-07-17T05:52:29.614Z,22.60
2018-07-17T05:54:33.416Z,22.30
2018-07-17T05:56:37.369Z,22.10
2018-07-17T05:58:41.195Z,22.20
2018-07-17T06:00:45.079Z,22.00
2018-07-17T06:04:52.395Z,22.00
2018-07-17T06:06:56.235Z,22.00
2018-07-17T06:09:00.119Z,22.30
2018-07-17T06:11:03.959Z,22.20
2018-07-17T06:13:07.841Z,22.20
2018-07-17T06:15:11.647Z,22.20
2018-07-17T06:17:15.561Z,22.00
2018-07-17T06:19:19.323Z,22.00
2018-07-17T06:21:23.252Z,21.80
2018-07-17T06:23:27.036Z,21.80
2018-07-17T06:25:30.892Z,21.80
2018-07-17T06:27:34.682Z,21.90
2018-07-17T06:31:41.993Z,21.50
2018-07-17T06:33:45.845Z,21.50
2018-07-17T06:35:49.680Z,21.20
2018-07-17T06:37:53.571Z,21.30
2018-07-17T06:39:57.434Z,21.40
2018-07-17T06:42:01.333Z,21.20
2018-07-17T06:44:05.210Z,21.10
2018-07-17T06:46:09.156Z,21.20
2018-07-17T06:48:12.953Z,21.30
2018-07-17T06:50:17.103Z,21.50
2018-07-17T06:52:20.829Z,21.50
2018-07-17T06:54:24.788Z,22.40
2018-07-17T06:56:28.632Z,23.30
2018-07-17T06:58:32.499Z,23.30
2018-07-17T07:00:36.313Z,23.90
2018-07-17T07:02:40.260Z,24.10
2018-07-17T07:04:44.052Z,24.70
2018-07-17T07:06:47.950Z,24.70
2018-07-17T07:08:51.722Z,24.30
2018-07-17T07:10:55.659Z,24.80
2018-07-17T07:12:59.452Z,25.20
2018-07-17T07:15:03.369Z,25.10
2018-07-17T07:19:10.668Z,25.30
2018-07-17T07:21:14.585Z,25.50
2018-07-17T07:23:18.529Z,25.40
2018-07-17T07:27:25.839Z,25.70
2018-07-17T07:29:29.630Z,25.90
2018-07-17T07:31:33.556Z,26.30
2018-07-17T07:35:40.826Z,26.30
2018-07-17T07:37:44.661Z,26.20
2018-07-17T07:39:48.558Z,27.00
2018-07-17T07:41:52.342Z,26.70
2018-07-17T07:43:56.229Z,26.70
2018-07-17T07:46:01.355Z,27.00
2018-07-17T07:48:05.249Z,27.00
2018-07-17T07:50:09.122Z,26.00
2018-07-17T07:52:12.986Z,26.80
2018-07-17T07:54:16.833Z,27.40
2018-07-17T07:56:20.716Z,27.40
2018-07-17T07:58:24.516Z,28.00
2018-07-17T08:00:28.421Z,27.80
2018-07-17T08:06:39.207Z,26.50
2018-07-17T08:08:43.114Z,26.50
2018-07-17T08:10:47.006Z,26.00
2018-07-17T08:12:50.914Z,25.40
2018-07-17T08:14:54.761Z,25.00
2018-07-17T08:16:58.611Z,25.10
2018-07-17T08:19:02.444Z,25.10
2018-07-17T08:21:06.389Z,26.00
2018-07-17T08:23:10.171Z,26.80
2018-07-17T08:25:14.087Z,25.70
2018-07-17T08:27:17.934Z,25.70
2018-07-17T08:29:21.963Z,25.40
2018-07-17T08:31:25.917Z,25.60
2018-07-17T08:33:29.881Z,27.20
2018-07-17T08:35:33.677Z,27.20
2018-07-17T08:37:37.561Z,27.40
2018-07-17T08:39:41.409Z,27.70
2018-07-17T08:41:45.281Z,28.40
2018-07-17T08:43:49.097Z,28.50
2018-07-17T08:45:52.931Z,28.60
2018-07-17T08:47:56.784Z,28.70
2018-07-17T08:50:00.700Z,29.00
2018-07-17T08:52:04.524Z,29.20
2018-07-17T08:54:08.474Z,29.50
2018-07-17T08:56:12.250Z,30.10
2018-07-17T08:58:16.145Z,30.30
2018-07-17T09:00:20.085Z,30.20
2018-07-17T09:02:23.968Z,30.40
2018-07-17T09:04:27.763Z,30.10
2018-07-17T09:06:31.659Z,30.20
2018-07-17T09:08:35.508Z,30.00
2018-07-17T09:10:39.414Z,29.90
2018-07-17T09:12:43.259Z,29.80
2018-07-17T09:14:47.138Z,29.80
2018-07-17T09:16:50.947Z,29.90
2018-07-17T09:18:54.835Z,30.00
2018-07-17T09:20:58.599Z,30.10
2018-07-17T09:23:02.505Z,29.90
2018-07-17T09:25:06.532Z,30.50
2018-07-17T09:27:10.467Z,30.60
2018-07-17T09:29:14.275Z,30.60
2018-07-17T09:31:18.352Z,30.80
2018-07-17T09:33:22.166Z,30.80
2018-07-17T09:35:26.020Z,30.80
2018-07-17T09:39:33.297Z,30.10
2018-07-17T09:41:37.130Z,30.50
2018-07-17T09:43:41.028Z,30.60
2018-07-17T09:45:44.817Z,30.60
2018-07-17T09:47:48.715Z,30.70
2018-07-17T09:49:52.532Z,31.20
2018-07-17T09:51:56.438Z,31.20
2018-07-17T09:54:00.645Z,30.40
2018-07-17T09:56:04.579Z,30.40
2018-07-17T09:58:08.422Z,30.10
2018-07-17T10:00:16.469Z,30.40
2018-07-17T10:02:25.627Z,30.40
2018-07-17T10:04:29.509Z,30.70
2018-07-17T10:06:33.319Z,31.00
2018-07-17T10:08:37.243Z,31.00
2018-07-17T10:10:41.016Z,31.40
2018-07-17T10:12:44.897Z,31.30
2018-07-17T10:14:48.706Z,31.20
2018-07-17T10:16:52.610Z,31.10
2018-07-17T10:18:56.409Z,31.40
2018-07-17T10:21:00.433Z,31.20
2018-07-17T10:23:04.232Z,31.20
2018-07-17T10:25:08.815Z,31.10
2018-07-17T10:27:12.645Z,30.80
2018-07-17T10:29:16.556Z,30.70
2018-07-17T10:31:20.350Z,30.90
2018-07-17T10:33:24.301Z,30.60
2018-07-17T10:37:31.706Z,30.50
2018-07-17T10:39:35.505Z,30.70
2018-07-17T10:41:39.725Z,30.60
2018-07-17T10:43:43.572Z,30.80
2018-07-17T10:45:47.441Z,31.00
2018-07-17T10:47:51.211Z,30.90
2018-07-17T10:49:55.167Z,30.50
2018-07-17T10:51:59.000Z,30.80
2018-07-17T10:54:03.670Z,31.40
2018-07-17T10:56:07.538Z,31.30
2018-07-17T10:58:11.529Z,31.30
2018-07-17T11:00:15.325Z,31.70
2018-07-17T11:02:19.209Z,31.20
2018-07-17T11:04:23.017Z,31.00
2018-07-17T11:06:26.903Z,30.70
2018-07-17T11:08:30.754Z,30.20
2018-07-17T11:10:34.655Z,30.70
2018-07-17T11:12:38.509Z,30.80
2018-07-17T11:14:42.430Z,30.60
2018-07-17T11:16:46.195Z,30.80
2018-07-17T11:18:50.049Z,30.70
2018-07-17T11:20:53.953Z,31.00
2018-07-17T11:22:58.118Z,30.40
2018-07-17T11:25:01.919Z,30.40
2018-07-17T11:27:06.639Z,30.50
2018-07-17T11:29:10.437Z,30.60
2018-07-17T11:31:14.375Z,30.00
2018-07-17T11:33:18.171Z,30.00
2018-07-17T11:35:22.161Z,30.20
2018-07-17T11:37:25.962Z,30.30
2018-07-17T11:39:29.836Z,30.10
2018-07-17T11:41:33.662Z,30.20
2018-07-17T11:43:37.516Z,30.30
2018-07-17T11:45:41.333Z,30.50
2018-07-17T11:47:45.256Z,30.40
2018-07-17T11:49:49.050Z,30.40
2018-07-17T11:51:52.948Z,30.00
2018-07-17T11:53:56.761Z,30.10
2018-07-17T11:56:00.629Z,30.30
2018-07-17T11:58:04.445Z,30.30
2018-07-17T12:00:08.375Z,30.30
2018-07-17T12:02:12.222Z,30.70
2018-07-17T12:04:16.144Z,30.60
2018-07-17T12:06:19.946Z,30.80
2018-07-17T12:08:23.852Z,30.90
2018-07-17T12:10:27.643Z,31.10
2018-07-17T12:12:31.488Z,30.70
2018-07-17T12:14:35.557Z,30.70
2018-07-17T12:16:39.411Z,30.40
2018-07-17T12:18:43.275Z,30.60
2018-07-17T12:20:47.146Z,30.10
2018-07-17T12:22:51.000Z,30.20
2018-07-17T12:24:54.909Z,30.00
2018-07-17T12:26:58.755Z,29.80
2018-07-17T12:29:02.594Z,30.10
2018-07-17T12:31:06.624Z,30.20
2018-07-17T12:33:10.739Z,30.30
2018-07-17T12:35:14.522Z,30.50
2018-07-17T12:37:18.456Z,30.80
2018-07-17T12:39:22.266Z,31.10
2018-07-17T12:41:26.157Z,31.20
2018-07-17T12:43:30.021Z,31.30
2018-07-17T12:45:33.884Z,30.70
2018-07-17T12:47:37.681Z,30.10
2018-07-17T12:49:41.575Z,29.20
2018-07-17T12:51:45.394Z,29.10
2018-07-17T12:53:49.335Z,30.00
2018-07-17T12:55:53.116Z,30.00
2018-07-17T12:57:57.009Z,29.60
2018-07-17T13:00:00.848Z,29.50
2018-07-17T13:02:04.801Z,29.80
2018-07-17T13:04:08.643Z,29.80
2018-07-17T13:06:12.570Z,29.90
2018-07-17T13:08:16.384Z,29.80
2018-07-17T13:10:20.273Z,29.30
2018-07-17T13:12:24.179Z,29.60
2018-07-17T13:14:28.091Z,29.80
2018-07-17T13:16:31.903Z,29.40
2018-07-17T13:18:35.767Z,29.40
2018-07-17T13:20:40.923Z,29.80
2018-07-17T13:22:44.755Z,30.00
2018-07-17T13:24:48.633Z,30.00
2018-07-17T13:26:52.524Z,29.80
2018-07-17T13:28:56.607Z,29.20
2018-07-17T13:31:00.434Z,28.80
2018-07-17T13:33:04.420Z,29.10
2018-07-17T13:35:08.432Z,29.20
2018-07-17T13:37:12.352Z,29.10
2018-07-17T13:39:16.213Z,28.80
2018-07-17T13:41:20.151Z,28.60
2018-07-17T13:43:23.999Z,29.00
2018-07-17T13:45:27.889Z,29.40
2018-07-17T13:47:31.686Z,28.50
2018-07-17T13:49:35.555Z,28.30
2018-07-17T13:51:39.483Z,28.30
2018-07-17T13:53:43.865Z,28.60
2018-07-17T13:55:47.722Z,28.70
2018-07-17T13:57:51.602Z,28.60
2018-07-17T13:59:55.512Z,28.90
2018-07-17T14:01:59.406Z,29.40
2018-07-17T14:04:03.179Z,29.10
2018-07-17T14:06:07.057Z,28.90
2018-07-17T14:08:10.873Z,29.00
2018-07-17T14:10:14.745Z,28.40
2018-07-17T14:12:18.836Z,27.90
2018-07-17T14:14:22.716Z,28.30
2018-07-17T14:16:26.519Z,28.70
2018-07-17T14:18:30.386Z,28.40
2018-07-17T14:20:34.247Z,28.10
2018-07-17T14:22:38.496Z,28.10
2018-07-17T14:24:42.654Z,28.40
2018-07-17T14:26:46.960Z,28.60
2018-07-17T14:28:50.974Z,28.20
2018-07-17T14:30:55.238Z,28.00
2018-07-17T14:32:59.328Z,28.00
2018-07-17T14:35:03.659Z,28.50
2018-07-17T14:37:07.891Z,28.60
2018-07-17T14:39:13.512Z,28.70
2018-07-17T14:41:17.831Z,28.70
2018-07-17T14:43:21.884Z,28.60
2018-07-17T14:45:26.169Z,28.40
2018-07-17T14:47:30.246Z,28.20
2018-07-17T14:49:34.362Z,28.50
2018-07-17T14:51:38.443Z,28.80
2018-07-17T14:53:42.721Z,28.80
2018-07-17T14:55:46.800Z,28.70
2018-07-17T14:57:50.859Z,28.50
2018-07-17T14:59:54.913Z,28.40
2018-07-17T15:01:59.177Z,27.90
2018-07-17T15:04:03.316Z,27.80
2018-07-17T15:06:07.468Z,28.40
2018-07-17T15:08:11.600Z,28.60
2018-07-17T15:10:16.036Z,28.70
2018-07-17T15:12:20.484Z,28.40
2018-07-17T15:14:24.648Z,28.30
2018-07-17T15:16:29.794Z,28.40
2018-07-17T15:18:33.918Z,28.20
2018-07-17T15:20:37.990Z,28.10
2018-07-17T15:22:42.126Z,28.20
2018-07-17T15:24:46.188Z,28.20
2018-07-17T15:26:50.235Z,27.90
2018-07-17T15:28:54.275Z,27.60
2018-07-17T15:30:58.441Z,27.60
2018-07-17T15:33:02.586Z,27.50
2018-07-17T15:35:06.732Z,27.60
2018-07-17T15:37:10.908Z,28.00
2018-07-17T15:39:15.048Z,28.20
2018-07-17T15:41:19.019Z,28.40
2018-07-17T15:43:23.237Z,28.30
2018-07-17T15:45:27.235Z,28.30
2018-07-17T15:47:31.423Z,28.40
2018-07-17T15:49:35.485Z,28.00
2018-07-17T15:51:39.839Z,28.00
2018-07-17T15:53:43.793Z,27.70
2018-07-17T15:55:47.725Z,27.60
2018-07-17T15:57:51.568Z,27.60
2018-07-17T15:59:56.709Z,27.40
2018-07-17T16:02:00.651Z,27.50
2018-07-17T16:04:04.624Z,27.60
2018-07-17T16:06:08.641Z,27.50
2018-07-17T16:08:12.509Z,27.30
2018-07-17T16:10:16.515Z,27.10
2018-07-17T16:12:20.448Z,27.00
2018-07-17T16:14:25.888Z,27.40
2018-07-17T16:16:29.577Z,27.50
2018-07-17T16:18:33.399Z,27.30
2018-07-17T16:20:37.323Z,27.40
2018-07-17T16:22:41.216Z,27.30
2018-07-17T16:24:45.127Z,27.20
2018-07-17T16:26:48.932Z,27.00
2018-07-17T16:29:02.461Z,26.90
2018-07-17T16:31:06.356Z,26.90
2018-07-17T16:33:10.694Z,27.10
2018-07-17T16:35:14.576Z,27.00
2018-07-17T16:37:18.455Z,27.00
2018-07-17T16:39:22.349Z,26.90
2018-07-17T16:41:26.209Z,26.80
2018-07-17T16:43:30.129Z,26.80
2018-07-17T16:45:34.037Z,26.80
2018-07-17T16:47:38.039Z,26.80
2018-07-17T16:49:41.918Z,27.00
2018-07-17T16:51:46.703Z,27.00
2018-07-17T16:53:51.204Z,26.90
2018-07-17T16:55:55.331Z,26.90
2018-07-17T16:57:59.151Z,27.00
2018-07-17T17:00:03.049Z,26.90
2018-07-17T17:02:06.950Z,26.70
2018-07-17T17:04:11.159Z,26.50
2018-07-17T17:06:15.328Z,26.40
2018-07-17T17:08:19.456Z,26.30
2018-07-17T17:10:23.413Z,26.30
2018-07-17T17:12:27.850Z,26.20
2018-07-17T17:14:31.832Z,26.30
2018-07-17T17:16:35.761Z,26.50
2018-07-17T17:18:39.634Z,26.30
2018-07-17T17:20:43.763Z,26.30
2018-07-17T17:22:47.604Z,26.30
2018-07-17T17:24:51.650Z,26.20
2018-07-17T17:26:55.647Z,26.10
2018-07-17T17:28:59.539Z,26.00
2018-07-17T17:31:03.658Z,25.90
2018-07-17T17:33:07.945Z,25.90
2018-07-17T17:37:15.802Z,25.40
2018-07-17T17:39:19.729Z,25.40
2018-07-17T17:41:23.977Z,25.10
2018-07-17T17:43:27.954Z,24.80
2018-07-17T17:45:32.127Z,24.70
2018-07-17T17:47:36.192Z,24.50
2018-07-17T17:49:40.170Z,24.40
2018-07-17T17:51:44.456Z,24.30
2018-07-17T17:53:48.608Z,24.40
2018-07-17T17:55:52.638Z,24.40
2018-07-17T17:57:56.729Z,24.30
2018-07-17T18:00:00.758Z,24.20
2018-07-17T18:02:05.238Z,24.30
2018-07-17T18:04:09.389Z,24.20
2018-07-17T18:06:13.576Z,24.20
2018-07-17T18:08:17.889Z,24.20
2018-07-17T18:10:22.306Z,24.10
2018-07-17T18:12:26.469Z,24.10
2018-07-17T18:14:30.928Z,24.10
2018-07-17T18:16:34.968Z,24.00
2018-07-17T18:18:39.252Z,24.00
2018-07-17T18:20:43.590Z,24.00
2018-07-17T18:22:47.969Z,23.90
2018-07-17T18:24:52.024Z,23.80
2018-07-17T18:26:56.267Z,23.80
2018-07-17T18:29:00.655Z,23.70
2018-07-17T18:31:04.879Z,23.60
2018-07-17T18:33:09.130Z,23.50
2018-07-17T18:35:13.370Z,23.50
2018-07-17T18:37:17.524Z,23.50
2018-07-17T18:39:21.745Z,23.40
2018-07-17T18:41:25.922Z,23.40
2018-07-17T18:43:30.236Z,23.30
2018-07-17T18:45:34.244Z,23.20
2018-07-17T18:47:38.355Z,23.10
2018-07-17T18:49:42.747Z,23.10
2018-07-17T18:51:47.840Z,23.00
2018-07-17T18:53:52.206Z,22.90
2018-07-17T18:55:56.268Z,22.90
2018-07-17T18:58:00.265Z,22.80
2018-07-17T19:00:05.014Z,22.70
2018-07-17T19:02:09.190Z,22.70
2018-07-17T19:04:13.422Z,22.70
2018-07-17T19:06:17.686Z,22.50
2018-07-17T19:08:22.087Z,22.40
2018-07-17T19:10:26.240Z,22.50
2018-07-17T19:12:30.410Z,22.40
2018-07-17T19:14:35.526Z,22.30
2018-07-17T19:16:40.999Z,22.40
2018-07-17T19:18:45.318Z,22.10
2018-07-17T19:20:49.741Z,22.10
2018-07-17T19:22:53.951Z,22.00
2018-07-17T19:27:01.630Z,21.90
2018-07-17T19:29:05.881Z,21.80
2018-07-17T19:31:10.002Z,21.80
2018-07-17T19:33:14.953Z,21.70
2018-07-17T19:35:19.310Z,21.60
2018-07-17T19:37:23.434Z,21.50
2018-07-17T19:39:27.782Z,21.40
2018-07-17T19:41:31.877Z,21.50
2018-07-17T19:43:36.114Z,21.40
2018-07-17T19:45:40.190Z,21.40
2018-07-17T19:47:44.262Z,21.40
2018-07-17T19:49:48.419Z,21.20
2018-07-17T19:51:52.522Z,21.20
2018-07-17T19:53:56.627Z,21.10
2018-07-17T19:56:00.936Z,21.00
2018-07-17T19:58:06.698Z,20.90
2018-07-17T20:02:14.663Z,20.90
2018-07-17T20:04:18.943Z,20.80
2018-07-17T20:06:23.255Z,20.90
2018-07-17T20:08:27.621Z,20.80
2018-07-17T20:10:31.949Z,20.90
2018-07-17T20:12:36.213Z,20.80
2018-07-17T20:14:40.320Z,20.60
2018-07-17T20:16:44.728Z,20.50
2018-07-17T20:18:49.042Z,20.50
2018-07-17T20:20:53.227Z,20.50
2018-07-17T20:22:57.131Z,20.40
2018-07-17T20:25:01.462Z,20.30
2018-07-17T20:27:05.353Z,20.20
2018-07-17T20:29:09.495Z,20.10
2018-07-17T20:31:13.339Z,20.10
2018-07-17T20:33:17.418Z,20.20
2018-07-17T20:35:21.348Z,20.20
2018-07-17T20:37:25.331Z,20.00
2018-07-17T20:39:29.420Z,20.10
2018-07-17T20:41:33.683Z,20.10
2018-07-17T20:43:37.754Z,20.10
2018-07-17T20:45:41.792Z,20.10
2018-07-17T20:47:45.645Z,20.00
2018-07-17T20:51:52.968Z,20.00
2018-07-17T20:53:56.898Z,20.00
2018-07-17T20:56:00.973Z,20.00
2018-07-17T20:58:04.876Z,20.00
2018-07-17T21:00:08.693Z,19.90
2018-07-17T21:02:12.796Z,19.70
2018-07-17T21:04:16.554Z,19.80
2018-07-17T21:06:20.425Z,19.70
2018-07-17T21:08:24.267Z,19.70
2018-07-17T21:10:28.168Z,19.60
2018-07-17T21:12:32.026Z,19.30
2018-07-17T21:14:36.278Z,19.30
2018-07-17T21:16:40.038Z,19.30
2018-07-17T21:18:43.941Z,19.30
2018-07-17T21:20:47.761Z,19.10
2018-07-17T21:22:51.678Z,19.10
2018-07-17T21:24:55.533Z,19.20
2018-07-17T21:26:59.420Z,19.30
2018-07-17T21:29:03.204Z,19.40
2018-07-17T21:31:07.286Z,19.30
2018-07-17T21:33:11.080Z,19.40
2018-07-17T21:35:14.987Z,19.40
2018-07-17T21:37:18.794Z,19.40
2018-07-17T21:39:22.675Z,19.30
2018-07-17T21:41:26.565Z,19.20
2018-07-17T21:43:30.457Z,19.10
2018-07-17T21:45:34.259Z,19.10
2018-07-17T21:47:43.476Z,18.90
2018-07-17T21:49:47.301Z,18.90
2018-07-17T21:51:51.070Z,19.00
2018-07-17T21:53:55.023Z,19.00
2018-07-17T21:55:58.820Z,18.70
2018-07-17T21:58:02.703Z,18.60
2018-07-17T22:00:08.573Z,18.60
2018-07-17T22:02:12.421Z,18.40
2018-07-17T22:04:16.345Z,18.40
2018-07-17T22:06:20.250Z,18.50
2018-07-17T22:08:24.054Z,18.50
2018-07-17T22:10:27.978Z,18.50
2018-07-17T22:12:32.008Z,18.50
2018-07-17T22:14:36.052Z,18.40
2018-07-17T22:16:39.831Z,18.30
2018-07-17T22:18:43.686Z,18.40
2018-07-17T22:20:47.592Z,18.40
2018-07-17T22:22:51.446Z,18.60
2018-07-17T22:24:55.374Z,18.40
2018-07-17T22:26:59.280Z,18.30
2018-07-17T22:29:03.096Z,18.10
2018-07-17T22:31:07.014Z,18.10
2018-07-17T22:33:10.913Z,18.10
2018-07-17T22:35:14.887Z,18.00
2018-07-17T22:37:18.784Z,18.10
2018-07-17T22:39:22.621Z,18.00
2018-07-17T22:41:26.417Z,18.00
2018-07-17T22:43:30.390Z,18.00
2018-07-17T22:45:34.430Z,18.20
2018-07-17T22:47:38.618Z,18.10
2018-07-17T22:49:42.871Z,17.90
2018-07-17T22:51:47.147Z,17.80
2018-07-17T22:53:51.302Z,17.60
2018-07-17T22:55:55.503Z,17.50
2018-07-17T22:57:59.908Z,17.70
2018-07-17T23:00:04.262Z,17.60
2018-07-17T23:02:08.295Z,17.60
2018-07-17T23:04:12.676Z,17.60
2018-07-17T23:06:16.683Z,17.50
2018-07-17T23:10:25.631Z,17.70
2018-07-17T23:12:30.031Z,17.70
2018-07-17T23:14:34.031Z,17.50
2018-07-17T23:16:38.281Z,17.50
2018-07-17T23:18:42.407Z,17.50
2018-07-17T23:20:46.646Z,17.50
2018-07-17T23:22:56.787Z,17.30
2018-07-17T23:25:01.006Z,17.30
2018-07-17T23:27:05.051Z,17.20
2018-07-17T23:29:09.133Z,17.20
2018-07-17T23:31:13.450Z,17.10
2018-07-17T23:33:17.591Z,17.20
2018-07-17T23:35:22.569Z,17.00
2018-07-17T23:37:26.834Z,16.90
2018-07-17T23:39:31.158Z,16.90
2018-07-17T23:41:35.410Z,16.90
2018-07-17T23:43:39.744Z,16.80
2018-07-17T23:45:43.885Z,16.50
2018-07-17T23:47:48.680Z,16.40
2018-07-17T23:49:52.812Z,16.80
2018-07-17T23:51:56.822Z,16.90
2018-07-17T23:54:00.982Z,16.80
2018-07-17T23:56:17.775Z,16.90
2018-07-17T23:58:21.999Z,16.80
